createdAt,value
2023-04-17T00:00:39.019Z,101389.40
2023-04-17T00:03:07.601Z,101384.55
2023-04-17T00:05:36.701Z,101389.66
2023-04-17T00:08:06.410Z,101386.30
2023-04-17T00:10:34.694Z,101387.46
2023-04-17T00:13:04.184Z,101388.55
2023-04-17T00:15:33.230Z,101390.67
2023-04-17T00:18:02.710Z,101388.85
2023-04-17T00:20:32.496Z,101391.92
2023-04-17T00:23:01.183Z,101391.14
2023-04-17T00:25:29.573Z,101393.33
2023-04-17T00:27:57.939Z,101395.88
2023-04-17T00:30:26.423Z,101398.95
2023-04-17T00:32:55.159Z,101395.14
2023-04-17T00:35:23.696Z,101388.42
2023-04-17T00:37:52.180Z,101390.10
2023-04-17T00:40:21.889Z,101390.34
2023-04-17T00:42:53.437Z,101389.52
2023-04-17T00:45:22.438Z,101390.44
2023-04-17T00:47:50.922Z,101390.94
2023-04-17T00:50:19.282Z,101392.64
2023-04-17T00:52:47.879Z,101395.94
2023-04-17T00:55:16.758Z,101393.27
2023-04-17T00:57:45.646Z,101395.66
2023-04-17T01:00:14.916Z,101392.80
2023-04-17T01:02:43.499Z,101390.66
2023-04-17T01:05:12.335Z,101389.23
2023-04-17T01:07:41.618Z,101380.95
2023-04-17T01:10:11.036Z,101384.65
2023-04-17T01:12:39.610Z,101378.61
2023-04-17T01:15:09.171Z,101382.56
2023-04-17T01:17:37.554Z,101378.42
2023-04-17T01:20:08.008Z,101381.79
2023-04-17T01:22:36.805Z,101379.28
2023-04-17T01:25:06.822Z,101377.80
2023-04-17T01:27:38.102Z,101375.94
2023-04-17T01:30:07.385Z,101375.67
2023-04-17T01:32:43.058Z,101376.92
2023-04-17T01:35:11.802Z,101376.63
2023-04-17T01:37:40.397Z,101370.32
2023-04-17T01:40:10.082Z,101375.04
2023-04-17T01:42:38.883Z,101377.65
2023-04-17T01:45:08.412Z,101376.11
2023-04-17T01:47:36.798Z,101376.66
2023-04-17T01:50:09.207Z,101377.98
2023-04-17T01:52:40.037Z,101380.88
2023-04-17T01:55:09.180Z,101379.78
2023-04-17T01:57:39.445Z,101379.76
2023-04-17T02:00:11.054Z,101380.17
2023-04-17T02:02:45.092Z,101376.27
2023-04-17T02:05:13.748Z,101376.56
2023-04-17T02:07:42.949Z,101375.57
2023-04-17T02:10:11.762Z,101376.98
2023-04-17T02:12:40.847Z,101375.13
2023-04-17T02:15:10.042Z,101379.01
2023-04-17T02:17:38.546Z,101376.86
2023-04-17T02:20:08.030Z,101379.34
2023-04-17T02:22:37.817Z,101379.35
2023-04-17T02:25:06.722Z,101378.86
2023-04-17T02:27:35.493Z,101376.97
2023-04-17T02:30:04.342Z,101381.20
2023-04-17T02:32:34.787Z,101380.89
2023-04-17T02:35:04.951Z,101379.24
2023-04-17T02:37:33.470Z,101381.06
2023-04-17T02:40:02.019Z,101380.20
2023-04-17T02:42:31.426Z,101379.95
2023-04-17T02:45:00.636Z,101376.41
2023-04-17T02:47:30.028Z,101377.90
2023-04-17T02:50:00.495Z,101380.08
2023-04-17T02:52:29.456Z,101383.29
2023-04-17T02:54:58.226Z,101386.95
2023-04-17T02:57:27.307Z,101384.20
2023-04-17T02:59:56.061Z,101384.98
2023-04-17T03:02:24.814Z,101383.53
2023-04-17T03:04:53.608Z,101387.96
2023-04-17T03:07:23.889Z,101388.83
2023-04-17T03:09:54.303Z,101393.05
2023-04-17T03:12:22.494Z,101387.95
2023-04-17T03:14:51.283Z,101389.89
2023-04-17T03:17:21.061Z,101389.59
2023-04-17T03:19:50.128Z,101387.46
2023-04-17T03:22:18.799Z,101382.46
2023-04-17T03:24:47.879Z,101386.77
2023-04-17T03:27:16.780Z,101379.66
2023-04-17T03:29:46.479Z,101381.83
2023-04-17T03:32:16.153Z,101378.19
2023-04-17T03:34:44.767Z,101380.83
2023-04-17T03:37:13.454Z,101371.65
2023-04-17T03:39:42.148Z,101376.91
2023-04-17T03:42:14.890Z,101373.80
2023-04-17T03:44:43.336Z,101376.48
2023-04-17T03:47:12.730Z,101381.48
2023-04-17T03:49:42.704Z,101376.41
2023-04-17T03:52:13.350Z,101371.52
2023-04-17T03:54:42.752Z,101369.11
2023-04-17T03:57:13.373Z,101364.39
2023-04-17T03:59:42.068Z,101364.58
2023-04-17T04:02:11.034Z,101360.95
2023-04-17T04:04:39.926Z,101365.95
2023-04-17T04:07:12.648Z,101370.17
2023-04-17T04:09:41.625Z,101365.26
2023-04-17T04:12:10.540Z,101372.25
2023-04-17T04:14:43.194Z,101367.66
2023-04-17T04:17:12.416Z,101373.79
2023-04-17T04:19:41.432Z,101367.64
2023-04-17T04:22:10.679Z,101375.98
2023-04-17T04:24:44.265Z,101378.65
2023-04-17T04:27:18.826Z,101380.18
2023-04-17T04:29:50.048Z,101377.61
2023-04-17T04:32:21.305Z,101377.75
2023-04-17T04:34:50.986Z,101373.50
2023-04-17T04:37:22.548Z,101372.35
2023-04-17T04:39:54.419Z,101369.77
2023-04-17T04:42:23.807Z,101367.64
2023-04-17T04:45:14.926Z,101365.23
2023-04-17T04:47:44.277Z,101366.00
2023-04-17T04:50:13.256Z,101365.23
2023-04-17T04:52:42.507Z,101358.20
2023-04-17T04:55:19.907Z,101354.16
2023-04-17T04:57:53.641Z,101353.50
2023-04-17T05:00:22.596Z,101358.67
2023-04-17T05:02:54.553Z,101359.33
2023-04-17T05:05:25.813Z,101359.23
2023-04-17T05:07:55.411Z,101354.98
2023-04-17T05:10:26.661Z,101351.89
2023-04-17T05:13:00.123Z,101359.59
2023-04-17T05:15:28.558Z,101351.70
2023-04-17T05:17:57.399Z,101347.46
2023-04-17T05:20:26.936Z,101353.78
2023-04-17T05:22:58.790Z,101341.20
2023-04-17T05:25:27.586Z,101345.80
2023-04-17T05:27:56.729Z,101349.30
2023-04-17T05:30:25.724Z,101351.19
2023-04-17T05:33:01.396Z,101352.60
2023-04-17T05:35:38.006Z,101353.91
2023-04-17T05:38:08.183Z,101358.81
2023-04-17T05:40:37.032Z,101357.92
2023-04-17T05:43:10.197Z,101359.48
2023-04-17T05:45:41.688Z,101349.23
2023-04-17T05:48:11.143Z,101353.58
2023-04-17T05:50:39.749Z,101349.79
2023-04-17T05:53:09.133Z,101349.41
2023-04-17T05:55:41.950Z,101353.69
2023-04-17T06:00:44.513Z,101358.38
2023-04-17T06:03:18.170Z,101356.86
2023-04-17T06:05:48.633Z,101366.79
2023-04-17T06:08:17.426Z,101358.49
2023-04-17T06:10:46.166Z,101363.05
2023-04-17T06:13:14.618Z,101356.77
2023-04-17T06:15:46.350Z,101360.17
2023-04-17T06:18:17.960Z,101376.11
2023-04-17T06:20:46.588Z,101360.23
2023-04-17T06:23:15.103Z,101366.06
2023-04-17T06:25:43.968Z,101357.55
2023-04-17T06:28:12.646Z,101357.23
2023-04-17T06:30:41.630Z,101358.07
2023-04-17T06:33:11.244Z,101357.84
2023-04-17T06:35:41.269Z,101369.78
2023-04-17T06:38:22.494Z,101366.31
2023-04-17T06:40:52.828Z,101361.83
2023-04-17T06:43:22.064Z,101367.23
2023-04-17T06:45:50.654Z,101364.38
2023-04-17T06:48:19.147Z,101368.41
2023-04-17T06:50:48.542Z,101355.63
2023-04-17T06:53:17.068Z,101352.88
2023-04-17T06:55:45.623Z,101349.33
2023-04-17T06:58:14.490Z,101347.90
2023-04-17T07:00:42.982Z,101354.54
2023-04-17T07:03:12.863Z,101354.12
2023-04-17T07:05:42.486Z,101361.27
2023-04-17T07:08:11.083Z,101346.98
2023-04-17T07:10:40.187Z,101336.00
2023-04-17T07:13:09.070Z,101320.34
2023-04-17T07:15:37.608Z,101323.56
2023-04-17T07:18:06.491Z,101317.54
2023-04-17T07:20:35.041Z,101316.65
2023-04-17T07:23:03.624Z,101315.55
2023-04-17T07:25:32.680Z,101319.92
2023-04-17T07:28:03.241Z,101304.25
2023-04-17T07:30:33.355Z,101307.05
2023-04-17T07:33:02.310Z,101303.92
2023-04-17T07:35:31.215Z,101309.73
2023-04-17T07:38:04.005Z,101299.64
2023-04-17T07:40:33.808Z,101301.11
2023-04-17T07:43:02.181Z,101299.30
2023-04-17T07:45:31.970Z,101295.91
2023-04-17T07:48:00.737Z,101294.70
2023-04-17T07:50:29.688Z,101293.10
2023-04-17T07:52:58.568Z,101282.83
2023-04-17T07:55:26.954Z,101273.48
2023-04-17T07:57:55.429Z,101265.73
2023-04-17T08:00:24.931Z,101275.80
2023-04-17T08:02:53.937Z,101259.38
2023-04-17T08:05:24.278Z,101255.70
2023-04-17T08:07:52.850Z,101263.63
2023-04-17T08:10:21.419Z,101254.33
2023-04-17T08:12:50.319Z,101248.66
2023-04-17T08:15:19.093Z,101258.67
2023-04-17T08:17:47.756Z,101247.60
2023-04-17T08:20:18.103Z,101241.29
2023-04-17T08:22:46.690Z,101250.58
2023-04-17T08:25:15.315Z,101244.84
2023-04-17T08:27:43.961Z,101226.80
2023-04-17T08:30:14.943Z,101239.49
2023-04-17T08:32:46.513Z,101236.45
2023-04-17T08:35:15.699Z,101232.95
2023-04-17T08:37:47.028Z,101232.98
2023-04-17T08:40:17.339Z,101229.63
2023-04-17T08:42:48.213Z,101252.49
2023-04-17T08:45:17.655Z,101227.00
2023-04-17T08:47:46.455Z,101218.86
2023-04-17T08:50:17.114Z,101215.33
2023-04-17T08:52:47.612Z,101224.76
2023-04-17T08:55:17.545Z,101208.41
2023-04-17T08:58:04.863Z,101206.30
2023-04-17T09:00:35.014Z,101210.92
2023-04-17T09:03:05.121Z,101189.48
2023-04-17T09:05:34.690Z,101195.67
2023-04-17T09:08:10.192Z,101199.23
2023-04-17T09:10:46.015Z,101179.02
2023-04-17T09:13:19.719Z,101193.77
2023-04-17T09:16:03.497Z,101165.39
2023-04-17T09:18:32.734Z,101169.88
2023-04-17T09:21:02.237Z,101165.45
2023-04-17T09:23:53.469Z,101159.20
2023-04-17T09:26:26.591Z,101176.75
2023-04-17T09:29:07.949Z,101178.02
2023-04-17T09:31:38.138Z,101161.39
2023-04-17T09:34:08.153Z,101162.29
2023-04-17T09:36:39.812Z,101163.36
2023-04-17T09:39:24.240Z,101168.88
2023-04-17T09:42:04.111Z,101157.91
2023-04-17T09:44:32.595Z,101162.89
2023-04-17T09:47:01.645Z,101138.95
2023-04-17T09:49:53.550Z,101149.95
2023-04-17T09:52:24.050Z,101142.11
2023-04-17T09:54:54.009Z,101150.61
2023-04-17T09:57:22.416Z,101148.30
2023-04-17T09:59:53.018Z,101136.42
2023-04-17T10:02:21.896Z,101136.94
2023-04-17T10:04:50.439Z,101135.34
2023-04-17T10:07:19.123Z,101143.65
2023-04-17T10:09:47.732Z,101135.67
2023-04-17T10:12:18.426Z,101111.16
2023-04-17T10:14:48.899Z,101114.85
2023-04-17T10:17:32.019Z,101117.83
2023-04-17T10:20:17.856Z,101109.25
2023-04-17T10:22:54.680Z,101121.63
2023-04-17T10:25:27.038Z,101097.08
2023-04-17T10:28:00.137Z,101109.65
2023-04-17T10:30:52.464Z,101112.29
2023-04-17T10:33:23.214Z,101116.92
2023-04-17T10:35:51.674Z,101113.90
2023-04-17T10:38:36.346Z,101119.73
2023-04-17T10:41:09.462Z,101107.81
2023-04-17T10:43:41.442Z,101114.71
2023-04-17T10:46:13.547Z,101115.02
2023-04-17T10:48:50.888Z,101109.84
2023-04-17T10:51:22.706Z,101095.23
2023-04-17T10:53:58.033Z,101107.27
2023-04-17T10:56:38.201Z,101105.96
2023-04-17T10:59:08.007Z,101110.02
2023-04-17T11:01:48.864Z,101097.76
2023-04-17T11:04:30.554Z,101098.83
2023-04-17T11:06:59.772Z,101091.88
2023-04-17T11:09:29.097Z,101091.66
2023-04-17T11:12:03.760Z,101071.73
2023-04-17T11:14:39.965Z,101099.05
2023-04-17T11:17:09.417Z,101095.08
2023-04-17T11:19:39.375Z,101082.39
2023-04-17T11:22:09.848Z,101076.83
2023-04-17T11:24:38.387Z,101090.98
2023-04-17T11:27:06.964Z,101067.13
2023-04-17T11:29:35.757Z,101074.73
2023-04-17T11:32:04.443Z,101071.52
2023-04-17T11:34:33.131Z,101072.35
2023-04-17T11:37:01.888Z,101062.33
2023-04-17T11:39:32.343Z,101068.46
2023-04-17T11:42:02.672Z,101078.75
2023-04-17T11:44:31.363Z,101068.44
2023-04-17T11:47:00.039Z,101061.30
2023-04-17T11:49:32.784Z,101044.52
2023-04-17T11:52:02.247Z,101060.85
2023-04-17T11:54:31.539Z,101045.54
2023-04-17T11:57:01.717Z,101046.61
2023-04-17T11:59:35.040Z,101046.77
2023-04-17T12:02:07.712Z,101047.64
2023-04-17T12:04:37.894Z,101039.61
2023-04-17T12:07:07.338Z,101035.80
2023-04-17T12:09:36.169Z,101063.86
2023-04-17T12:12:05.876Z,101036.79
2023-04-17T12:14:34.495Z,101046.73
2023-04-17T12:17:02.823Z,101033.54
2023-04-17T12:19:32.215Z,101024.60
2023-04-17T12:22:01.009Z,101028.13
2023-04-17T12:24:30.026Z,101021.17
2023-04-17T12:27:02.072Z,101028.27
2023-04-17T12:29:42.950Z,101015.56
2023-04-17T12:32:13.210Z,101010.54
2023-04-17T12:34:42.131Z,101017.58
2023-04-17T12:37:11.335Z,100997.61
2023-04-17T12:39:40.014Z,100998.45
2023-04-17T12:42:08.820Z,100991.98
2023-04-17T12:44:37.398Z,100998.16
2023-04-17T12:47:05.985Z,101003.67
2023-04-17T12:49:35.473Z,100986.37
2023-04-17T12:52:04.288Z,100993.09
2023-04-17T12:54:33.580Z,100984.13
2023-04-17T12:57:04.197Z,100979.66
2023-04-17T12:59:33.818Z,100982.63
2023-04-17T13:02:03.115Z,100984.88
2023-04-17T13:04:32.005Z,100988.92
2023-04-17T13:07:00.995Z,100982.11
2023-04-17T13:09:29.356Z,100989.77
2023-04-17T13:11:58.175Z,100982.85
2023-04-17T13:14:26.850Z,100975.35
2023-04-17T13:16:55.906Z,100981.56
2023-04-17T13:19:26.761Z,100978.14
2023-04-17T13:21:55.355Z,100977.06
2023-04-17T13:24:25.991Z,100983.05
2023-04-17T13:26:58.385Z,100973.25
2023-04-17T13:29:27.892Z,100983.74
2023-04-17T13:31:56.845Z,100982.11
2023-04-17T13:34:25.700Z,100993.50
2023-04-17T13:36:55.929Z,100981.79
2023-04-17T13:39:25.617Z,100989.16
2023-04-17T13:41:54.399Z,100987.09
2023-04-17T13:44:22.740Z,100989.10
2023-04-17T13:46:51.901Z,100998.05
2023-04-17T13:49:21.229Z,100993.48
2023-04-17T13:51:49.713Z,100982.48
2023-04-17T13:54:18.544Z,100987.67
2023-04-17T13:56:46.886Z,101008.36
2023-04-17T13:59:16.292Z,100994.70
2023-04-17T14:01:44.679Z,101007.38
2023-04-17T14:04:13.462Z,101008.11
2023-04-17T14:06:44.399Z,101011.33
2023-04-17T14:09:13.209Z,100992.66
2023-04-17T14:11:42.082Z,100987.87
2023-04-17T14:14:12.985Z,100990.38
2023-04-17T14:16:41.591Z,100981.14
2023-04-17T14:19:13.955Z,100989.52
2023-04-17T14:21:43.561Z,100989.40
2023-04-17T14:24:14.965Z,100990.02
2023-04-17T14:26:45.181Z,100988.65
2023-04-17T14:29:16.344Z,100991.59
2023-04-17T14:31:47.546Z,100991.66
2023-04-17T14:34:16.511Z,100980.18
2023-04-17T14:36:45.107Z,100982.36
2023-04-17T14:39:14.329Z,100980.30
2023-04-17T14:41:43.747Z,100977.52
2023-04-17T14:44:12.975Z,100985.17
2023-04-17T14:46:41.946Z,100989.15
2023-04-17T14:49:11.072Z,100989.58
2023-04-17T14:51:40.105Z,100977.52
2023-04-17T14:54:09.041Z,100972.94
2023-04-17T14:56:38.909Z,100982.42
2023-04-17T14:59:07.377Z,100984.42
2023-04-17T15:01:36.949Z,100981.45
2023-04-17T15:04:06.820Z,100985.05
2023-04-17T15:06:36.492Z,100980.64
2023-04-17T15:09:04.972Z,100974.64
2023-04-17T15:11:33.759Z,100976.11
2023-04-17T15:14:02.565Z,100986.64
2023-04-17T15:16:31.441Z,100978.87
2023-04-17T15:19:00.134Z,100986.73
2023-04-17T15:21:28.611Z,100972.18
2023-04-17T15:23:57.294Z,100978.44
2023-04-17T15:26:27.557Z,100981.48
2023-04-17T15:28:56.255Z,100988.45
2023-04-17T15:31:26.290Z,100981.55
2023-04-17T15:33:55.930Z,100981.95
2023-04-17T15:36:29.351Z,100982.52
2023-04-17T15:38:59.234Z,100984.88
2023-04-17T15:41:28.943Z,100983.33
2023-04-17T15:43:57.777Z,100988.34
2023-04-17T15:46:27.378Z,100986.97
2023-04-17T15:49:21.493Z,100988.08
2023-04-17T15:51:47.424Z,100987.77
2023-04-17T15:54:15.927Z,100992.23
2023-04-17T15:56:47.492Z,100996.52
2023-04-17T15:59:16.057Z,100996.39
2023-04-17T16:01:46.399Z,100993.23
2023-04-17T16:04:15.914Z,101003.76
2023-04-17T16:06:44.396Z,101002.02
2023-04-17T16:09:14.549Z,101008.09
2023-04-17T16:11:43.312Z,101009.52
2023-04-17T16:14:12.988Z,101019.16
2023-04-17T16:16:43.012Z,101017.05
2023-04-17T16:19:15.142Z,101010.17
2023-04-17T16:21:46.071Z,101017.13
2023-04-17T16:24:15.038Z,101022.85
2023-04-17T16:26:44.364Z,101020.06
2023-04-17T16:29:13.597Z,101017.09
2023-04-17T16:31:42.946Z,101022.63
2023-04-17T16:34:13.445Z,101026.21
2023-04-17T16:36:45.225Z,101026.42
2023-04-17T16:39:15.058Z,101030.02
2023-04-17T16:41:44.394Z,101033.24
2023-04-17T16:44:14.784Z,101032.20
2023-04-17T16:47:02.870Z,101033.64
2023-04-17T16:49:33.552Z,101037.75
2023-04-17T16:52:04.902Z,101037.60
2023-04-17T16:54:35.006Z,101040.80
2023-04-17T16:57:06.201Z,101042.24
2023-04-17T16:59:35.096Z,101048.64
2023-04-17T17:02:04.164Z,101047.42
2023-04-17T17:04:34.093Z,101051.88
2023-04-17T17:07:03.407Z,101061.29
2023-04-17T17:09:34.212Z,101063.26
2023-04-17T17:12:04.603Z,101064.16
2023-04-17T17:14:33.688Z,101066.13
2023-04-17T17:17:02.586Z,101069.52
2023-04-17T17:19:31.513Z,101069.88
2023-04-17T17:22:00.979Z,101075.74
2023-04-17T17:24:31.367Z,101077.70
2023-04-17T17:27:02.002Z,101078.62
2023-04-17T17:29:30.944Z,101081.28
2023-04-17T17:32:00.706Z,101082.52
2023-04-17T17:37:05.507Z,101084.13
2023-04-17T17:39:34.574Z,101082.71
2023-04-17T17:42:09.379Z,101085.56
2023-04-17T17:44:38.943Z,101091.23
2023-04-17T17:47:17.201Z,101089.13
2023-04-17T17:49:46.453Z,101088.77
2023-04-17T17:52:15.489Z,101092.50
2023-04-17T17:54:46.834Z,101094.10
2023-04-17T17:57:16.703Z,101094.45
2023-04-17T17:59:46.206Z,101089.31
2023-04-17T18:02:15.650Z,101096.05
2023-04-17T18:04:44.737Z,101092.52
2023-04-17T18:07:13.863Z,101094.82
2023-04-17T18:09:42.742Z,101091.27
2023-04-17T18:12:11.437Z,101091.10
2023-04-17T18:14:40.324Z,101091.98
2023-04-17T18:17:09.222Z,101087.04
2023-04-17T18:19:41.217Z,101088.63
2023-04-17T18:22:09.751Z,101089.34
2023-04-17T18:24:38.963Z,101091.29
2023-04-17T18:27:09.066Z,101093.07
2023-04-17T18:29:40.389Z,101092.00
2023-04-17T18:32:11.468Z,101088.99
2023-04-17T18:34:40.213Z,101087.77
2023-04-17T18:37:11.913Z,101092.02
2023-04-17T18:39:42.926Z,101089.02
2023-04-17T18:42:12.966Z,101085.47
2023-04-17T18:44:44.283Z,101084.59
2023-04-17T18:47:13.556Z,101085.30
2023-04-17T18:49:43.415Z,101082.29
2023-04-17T18:52:14.884Z,101083.89
2023-04-17T18:54:44.681Z,101083.36
2023-04-17T18:57:15.797Z,101079.11
2023-04-17T18:59:44.621Z,101084.77
2023-04-17T19:02:13.459Z,101080.52
2023-04-17T19:04:43.124Z,101078.05
2023-04-17T19:07:12.631Z,101073.62
2023-04-17T19:09:41.546Z,101069.55
2023-04-17T19:12:12.090Z,101069.38
2023-04-17T19:14:41.232Z,101070.26
2023-04-17T19:17:10.655Z,101071.86
2023-04-17T19:19:40.247Z,101070.08
2023-04-17T19:22:09.239Z,101069.90
2023-04-17T19:24:38.132Z,101062.66
2023-04-17T19:27:06.873Z,101060.52
2023-04-17T19:29:36.477Z,101062.13
2023-04-17T19:32:05.456Z,101054.52
2023-04-17T19:34:34.847Z,101064.25
2023-04-17T19:37:03.412Z,101061.06
2023-04-17T19:39:33.210Z,101061.59
2023-04-17T19:42:03.334Z,101060.17
2023-04-17T19:44:32.235Z,101058.58
2023-04-17T19:47:01.120Z,101054.16
2023-04-17T19:49:29.891Z,101057.52
2023-04-17T19:52:01.099Z,101059.11
2023-04-17T19:54:29.733Z,101057.34
2023-04-17T19:56:58.302Z,101055.93
2023-04-17T19:59:27.204Z,101050.45
2023-04-17T20:01:56.052Z,101053.63
2023-04-17T20:04:24.964Z,101049.73
2023-04-17T20:06:53.560Z,101053.80
2023-04-17T20:09:22.245Z,101055.20
2023-04-17T20:11:51.027Z,101052.90
2023-04-17T20:14:20.090Z,101056.27
2023-04-17T20:16:50.326Z,101058.55
2023-04-17T20:19:18.962Z,101057.48
2023-04-17T20:21:47.925Z,101062.05
2023-04-17T20:24:16.512Z,101054.43
2023-04-17T20:26:45.299Z,101049.30
2023-04-17T20:29:14.183Z,101051.06
2023-04-17T20:31:43.461Z,101047.35
2023-04-17T20:34:12.176Z,101043.98
2023-04-17T20:36:40.857Z,101041.31
2023-04-17T20:39:11.104Z,101039.90
2023-04-17T20:41:40.720Z,101040.77
2023-04-17T20:44:09.072Z,101038.98
2023-04-17T20:46:38.576Z,101036.86
2023-04-17T20:49:07.153Z,101038.43
2023-04-17T20:51:36.150Z,101037.90
2023-04-17T20:54:04.835Z,101038.95
2023-04-17T20:56:33.635Z,101040.35
2023-04-17T20:59:02.927Z,101036.98
2023-04-17T21:01:31.536Z,101036.60
2023-04-17T21:04:00.258Z,101036.95
2023-04-17T21:06:29.391Z,101033.58
2023-04-17T21:08:58.506Z,101027.74
2023-04-17T21:11:26.856Z,101030.38
2023-04-17T21:13:56.052Z,101022.94
2023-04-17T21:16:25.402Z,101022.75
2023-04-17T21:18:53.939Z,101024.15
2023-04-17T21:21:22.665Z,101023.27
2023-04-17T21:23:52.271Z,101020.42
2023-04-17T21:26:21.834Z,101016.00
2023-04-17T21:28:50.218Z,101014.58
2023-04-17T21:31:18.735Z,101015.97
2023-04-17T21:33:47.485Z,101016.66
2023-04-17T21:36:16.175Z,101016.65
2023-04-17T21:38:44.547Z,101016.63
2023-04-17T21:41:13.027Z,101013.61
2023-04-17T21:43:41.616Z,101014.13
2023-04-17T21:46:11.604Z,101013.40
2023-04-17T21:48:40.221Z,101012.33
2023-04-17T21:51:09.747Z,101013.20
2023-04-17T21:53:38.821Z,101011.06
2023-04-17T21:56:08.525Z,101011.57
2023-04-17T21:58:37.720Z,101011.20
2023-04-17T22:01:06.482Z,101005.18
2023-04-17T22:03:36.117Z,101004.10
2023-04-17T22:06:05.113Z,101001.97
2023-04-17T22:08:33.500Z,101008.49
2023-04-17T22:11:02.021Z,101003.39
2023-04-17T22:13:31.889Z,101003.55
2023-04-17T22:16:00.492Z,101003.36
2023-04-17T22:18:29.360Z,101001.23
2023-04-17T22:20:58.159Z,100999.28
2023-04-17T22:23:27.042Z,100995.39
2023-04-17T22:25:55.533Z,100990.97
2023-04-17T22:28:24.102Z,100989.55
2023-04-17T22:30:52.715Z,100988.30
2023-04-17T22:33:21.505Z,100987.77
2023-04-17T22:35:50.374Z,100989.17
2023-04-17T22:38:20.072Z,100985.47
2023-04-17T22:40:49.010Z,100982.81
2023-04-17T22:43:17.474Z,100978.05
2023-04-17T22:45:46.204Z,100982.29
2023-04-17T22:48:16.246Z,100974.35
2023-04-17T22:50:45.852Z,100976.64
2023-04-17T22:53:14.234Z,100981.05
2023-04-17T22:55:42.712Z,100985.11
2023-04-17T22:58:11.702Z,100975.59
2023-04-17T23:00:40.398Z,100978.40
2023-04-17T23:03:09.561Z,100976.65
2023-04-17T23:05:38.373Z,100978.58
2023-04-17T23:08:07.068Z,100977.17
2023-04-17T23:10:35.845Z,100972.75
2023-04-17T23:13:04.429Z,100973.63
2023-04-17T23:15:33.735Z,100973.45
2023-04-17T23:18:02.455Z,100966.88
2023-04-17T23:20:30.999Z,100971.45
2023-04-17T23:22:59.681Z,100970.38
2023-04-17T23:25:28.387Z,100964.38
2023-04-17T23:27:57.175Z,100964.90
2023-04-17T23:30:25.841Z,100967.36
2023-04-17T23:32:55.827Z,100970.70
2023-04-17T23:35:24.675Z,100962.06
2023-04-17T23:37:53.055Z,100962.23
2023-04-17T23:40:21.507Z,100959.76
2023-04-17T23:42:50.718Z,100956.75
2023-04-17T23:45:19.300Z,100962.56
2023-04-17T23:47:48.050Z,100956.73
2023-04-17T23:50:16.586Z,100955.66
2023-04-17T23:52:45.376Z,100953.89
2023-04-17T23:55:13.631Z,100955.64
2023-04-17T23:57:42.110Z,100966.38
